Terminal Aerodrome Forecast
Issued by NWS

Home | Current Version | Previous Version | Text Only | Print | Product List | Glossary On
Versions: 1 2 3 4 5 6 7 8 9 10 11 12 13 14 15 16 17
964
FTUS41 KGYX 242320
TAFRKD
TAF
KRKD 242320Z 2500/2524 21005KT P6SM SCT250
     FM251300 21012KT P6SM SCT120 BKN250
     FM252100 21011KT P6SM BKN100
      AMD LTD TO CLD VIS AND WIND=

USA.gov is the U.S. government's official web portal to all federal, state and local government web resources and services.